sensor_id;sensor_type;location;lat;lon;timestamp;temperature;humidity
30290;DHT22;17105;55.652;37.710;2022-11-20T00:00:38;2.10;93.60
30290;DHT22;17105;55.652;37.710;2022-11-20T00:01:12;2.10;93.60
30290;DHT22;17105;55.652;37.710;2022-11-20T00:01:47;2.10;93.50
30290;DHT22;17105;55.652;37.710;2022-11-20T00:02:22;2.10;93.50
30290;DHT22;17105;55.652;37.710;2022-11-20T00:02:56;2.10;93.50
30290;DHT22;17105;55.652;37.710;2022-11-20T00:03:31;2.10;93.50
30290;DHT22;17105;55.652;37.710;2022-11-20T00:04:04;2.10;93.50
30290;DHT22;17105;55.652;37.710;2022-11-20T00:04:38;2.10;93.50
30290;DHT22;17105;55.652;37.710;2022-11-20T00:05:12;2.10;93.40
30290;DHT22;17105;55.652;37.710;2022-11-20T00:05:46;2.10;93.40
30290;DHT22;17105;55.652;37.710;2022-11-20T00:06:21;2.10;93.40
30290;DHT22;17105;55.652;37.710;2022-11-20T00:06:56;2.10;93.40
30290;DHT22;17105;55.652;37.710;2022-11-20T00:07:32;2.10;93.40
30290;DHT22;17105;55.652;37.710;2022-11-20T00:08:07;2.10;93.30
30290;DHT22;17105;55.652;37.710;2022-11-20T00:08:42;2.10;93.30
30290;DHT22;17105;55.652;37.710;2022-11-20T00:09:16;2.10;93.20
30290;DHT22;17105;55.652;37.710;2022-11-20T00:09:51;2.20;93.20
30290;DHT22;17105;55.652;37.710;2022-11-20T00:10:24;2.20;93.30
30290;DHT22;17105;55.652;37.710;2022-11-20T00:11:02;2.20;93.20
30290;DHT22;17105;55.652;37.710;2022-11-20T00:11:41;2.20;93.20
30290;DHT22;17105;55.652;37.710;2022-11-20T00:12:15;2.20;93.20
30290;DHT22;17105;55.652;37.710;2022-11-20T00:12:50;2.20;93.20
30290;DHT22;17105;55.652;37.710;2022-11-20T00:13:24;2.20;93.20
30290;DHT22;17105;55.652;37.710;2022-11-20T00:13:59;2.20;93.20
30290;DHT22;17105;55.652;37.710;2022-11-20T00:14:33;2.20;93.20
30290;DHT22;17105;55.652;37.710;2022-11-20T00:15:08;2.30;93.10
30290;DHT22;17105;55.652;37.710;2022-11-20T00:15:42;2.30;93.20
30290;DHT22;17105;55.652;37.710;2022-11-20T00:16:17;2.30;93.20
30290;DHT22;17105;55.652;37.710;2022-11-20T00:16:52;2.20;93.20
30290;DHT22;17105;55.652;37.710;2022-11-20T00:17:25;2.20;93.20
30290;DHT22;17105;55.652;37.710;2022-11-20T00:17:59;2.30;93.30
30290;DHT22;17105;55.652;37.710;2022-11-20T00:18:34;2.30;93.20
30290;DHT22;17105;55.652;37.710;2022-11-20T00:19:08;2.30;93.30
30290;DHT22;17105;55.652;37.710;2022-11-20T00:19:44;2.20;93.30
30290;DHT22;17105;55.652;37.710;2022-11-20T00:20:19;2.20;93.30
30290;DHT22;17105;55.652;37.710;2022-11-20T00:20:53;2.30;93.30
30290;DHT22;17105;55.652;37.710;2022-11-20T00:21:28;2.30;93.30
30290;DHT22;17105;55.652;37.710;2022-11-20T00:22:02;2.30;93.30
30290;DHT22;17105;55.652;37.710;2022-11-20T00:22:38;2.30;93.30
30290;DHT22;17105;55.652;37.710;2022-11-20T00:23:13;2.30;93.30
30290;DHT22;17105;55.652;37.710;2022-11-20T00:23:47;2.30;93.20
30290;DHT22;17105;55.652;37.710;2022-11-20T00:24:21;2.40;93.10
30290;DHT22;17105;55.652;37.710;2022-11-20T00:24:55;2.40;93.00
30290;DHT22;17105;55.652;37.710;2022-11-20T00:25:30;2.40;92.90
30290;DHT22;17105;55.652;37.710;2022-11-20T00:26:05;2.40;92.90
30290;DHT22;17105;55.652;37.710;2022-11-20T00:26:40;2.40;92.80
30290;DHT22;17105;55.652;37.710;2022-11-20T00:27:14;2.40;92.80
30290;DHT22;17105;55.652;37.710;2022-11-20T00:27:48;2.40;92.70
30290;DHT22;17105;55.652;37.710;2022-11-20T00:28:22;2.50;92.60
30290;DHT22;17105;55.652;37.710;2022-11-20T00:28:58;2.40;92.60
30290;DHT22;17105;55.652;37.710;2022-11-20T00:29:32;2.40;92.60
30290;DHT22;17105;55.652;37.710;2022-11-20T00:30:06;2.40;92.50
30290;DHT22;17105;55.652;37.710;2022-11-20T00:30:46;2.40;92.50
30290;DHT22;17105;55.652;37.710;2022-11-20T00:31:19;2.40;92.60
30290;DHT22;17105;55.652;37.710;2022-11-20T00:31:53;2.40;92.30
30290;DHT22;17105;55.652;37.710;2022-11-20T00:32:26;2.40;92.20
30290;DHT22;17105;55.652;37.710;2022-11-20T00:33:00;2.40;92.20
30290;DHT22;17105;55.652;37.710;2022-11-20T00:33:34;2.30;92.10
30290;DHT22;17105;55.652;37.710;2022-11-20T00:34:08;2.30;92.10
30290;DHT22;17105;55.652;37.710;2022-11-20T00:34:42;2.30;92.20
30290;DHT22;17105;55.652;37.710;2022-11-20T00:35:16;2.30;92.30
30290;DHT22;17105;55.652;37.710;2022-11-20T00:35:50;2.30;92.30
30290;DHT22;17105;55.652;37.710;2022-11-20T00:36:24;2.30;92.30
30290;DHT22;17105;55.652;37.710;2022-11-20T00:36:59;2.30;92.20
30290;DHT22;17105;55.652;37.710;2022-11-20T00:37:33;2.20;92.20
30290;DHT22;17105;55.652;37.710;2022-11-20T00:38:08;2.20;92.10
30290;DHT22;17105;55.652;37.710;2022-11-20T00:38:43;2.20;92.10
30290;DHT22;17105;55.652;37.710;2022-11-20T00:39:17;2.20;92.10
30290;DHT22;17105;55.652;37.710;2022-11-20T00:39:53;2.20;92.20
30290;DHT22;17105;55.652;37.710;2022-11-20T00:40:26;2.20;92.30
30290;DHT22;17105;55.652;37.710;2022-11-20T00:41:00;2.10;92.20
30290;DHT22;17105;55.652;37.710;2022-11-20T00:41:34;2.20;92.20
30290;DHT22;17105;55.652;37.710;2022-11-20T00:42:07;2.20;92.20
30290;DHT22;17105;55.652;37.710;2022-11-20T00:42:41;2.20;92.10
30290;DHT22;17105;55.652;37.710;2022-11-20T00:43:15;2.20;92.10
30290;DHT22;17105;55.652;37.710;2022-11-20T00:43:50;2.20;92.10
30290;DHT22;17105;55.652;37.710;2022-11-20T00:44:23;2.20;92.10
30290;DHT22;17105;55.652;37.710;2022-11-20T00:44:58;2.20;92.00
30290;DHT22;17105;55.652;37.710;2022-11-20T00:45:33;2.20;92.00
30290;DHT22;17105;55.652;37.710;2022-11-20T00:46:07;2.20;92.10
30290;DHT22;17105;55.652;37.710;2022-11-20T00:46:42;2.20;92.10
30290;DHT22;17105;55.652;37.710;2022-11-20T00:47:16;2.20;92.10
30290;DHT22;17105;55.652;37.710;2022-11-20T00:47:50;2.20;92.10
30290;DHT22;17105;55.652;37.710;2022-11-20T00:48:24;2.20;92.00
30290;DHT22;17105;55.652;37.710;2022-11-20T00:49:02;2.20;92.00
30290;DHT22;17105;55.652;37.710;2022-11-20T00:49:36;2.20;91.90
30290;DHT22;17105;55.652;37.710;2022-11-20T00:50:11;2.20;91.90
30290;DHT22;17105;55.652;37.710;2022-11-20T00:50:45;2.20;91.80
30290;DHT22;17105;55.652;37.710;2022-11-20T00:51:19;2.20;91.70
30290;DHT22;17105;55.652;37.710;2022-11-20T00:51:52;2.20;91.60
30290;DHT22;17105;55.652;37.710;2022-11-20T00:52:26;2.20;91.60
30290;DHT22;17105;55.652;37.710;2022-11-20T00:52:59;2.20;91.60
30290;DHT22;17105;55.652;37.710;2022-11-20T00:53:35;2.10;91.50
30290;DHT22;17105;55.652;37.710;2022-11-20T00:54:08;2.10;91.50
30290;DHT22;17105;55.652;37.710;2022-11-20T00:54:43;2.10;91.60
30290;DHT22;17105;55.652;37.710;2022-11-20T00:55:18;2.10;91.50
30290;DHT22;17105;55.652;37.710;2022-11-20T00:55:54;2.10;91.50
30290;DHT22;17105;55.652;37.710;2022-11-20T00:56:29;2.10;91.40
30290;DHT22;17105;55.652;37.710;2022-11-20T00:57:03;2.10;91.50
30290;DHT22;17105;55.652;37.710;2022-11-20T00:57:37;2.00;91.50
30290;DHT22;17105;55.652;37.710;2022-11-20T00:58:11;2.00;91.60
30290;DHT22;17105;55.652;37.710;2022-11-20T00:58:47;1.90;91.70
30290;DHT22;17105;55.652;37.710;2022-11-20T00:59:21;1.90;91.80
30290;DHT22;17105;55.652;37.710;2022-11-20T00:59:55;1.90;91.90
30290;DHT22;17105;55.652;37.710;2022-11-20T01:00:30;1.90;91.90
30290;DHT22;17105;55.652;37.710;2022-11-20T01:01:04;2.00;92.00
30290;DHT22;17105;55.652;37.710;2022-11-20T01:01:38;1.90;91.80
30290;DHT22;17105;55.652;37.710;2022-11-20T01:02:13;2.00;91.80
30290;DHT22;17105;55.652;37.710;2022-11-20T01:02:49;2.00;91.70
30290;DHT22;17105;55.652;37.710;2022-11-20T01:03:24;2.00;91.80
30290;DHT22;17105;55.652;37.710;2022-11-20T01:03:59;1.90;91.80
30290;DHT22;17105;55.652;37.710;2022-11-20T01:04:32;1.90;91.80
30290;DHT22;17105;55.652;37.710;2022-11-20T01:05:06;2.00;91.90
30290;DHT22;17105;55.652;37.710;2022-11-20T01:05:41;2.00;91.90
30290;DHT22;17105;55.652;37.710;2022-11-20T01:06:16;2.00;91.80
30290;DHT22;17105;55.652;37.710;2022-11-20T01:06:50;2.00;91.80
30290;DHT22;17105;55.652;37.710;2022-11-20T01:07:25;2.00;91.70
30290;DHT22;17105;55.652;37.710;2022-11-20T01:07:58;2.00;91.70
30290;DHT22;17105;55.652;37.710;2022-11-20T01:08:33;2.00;91.60
30290;DHT22;17105;55.652;37.710;2022-11-20T01:09:11;2.00;91.60
30290;DHT22;17105;55.652;37.710;2022-11-20T01:09:46;1.90;91.50
30290;DHT22;17105;55.652;37.710;2022-11-20T01:10:21;1.90;91.50
30290;DHT22;17105;55.652;37.710;2022-11-20T01:10:58;1.80;91.60
30290;DHT22;17105;55.652;37.710;2022-11-20T01:11:32;1.80;91.80
30290;DHT22;17105;55.652;37.710;2022-11-20T01:12:05;1.80;91.80
30290;DHT22;17105;55.652;37.710;2022-11-20T01:12:41;1.70;91.90
30290;DHT22;17105;55.652;37.710;2022-11-20T01:13:16;1.70;92.00
30290;DHT22;17105;55.652;37.710;2022-11-20T01:14:09;1.80;92.00
30290;DHT22;17105;55.652;37.710;2022-11-20T01:14:44;1.80;92.10
30290;DHT22;17105;55.652;37.710;2022-11-20T01:15:18;1.80;92.00
30290;DHT22;17105;55.652;37.710;2022-11-20T01:15:52;1.80;91.90
30290;DHT22;17105;55.652;37.710;2022-11-20T01:16:27;1.80;91.70
30290;DHT22;17105;55.652;37.710;2022-11-20T01:17:01;1.80;91.70
30290;DHT22;17105;55.652;37.710;2022-11-20T01:17:35;1.80;91.80
30290;DHT22;17105;55.652;37.710;2022-11-20T01:18:09;1.70;91.70
30290;DHT22;17105;55.652;37.710;2022-11-20T01:18:45;1.70;91.70
30290;DHT22;17105;55.652;37.710;2022-11-20T01:19:20;1.70;91.80
30290;DHT22;17105;55.652;37.710;2022-11-20T01:19:56;1.70;91.80
30290;DHT22;17105;55.652;37.710;2022-11-20T01:20:29;1.70;91.60
30290;DHT22;17105;55.652;37.710;2022-11-20T01:21:03;1.70;91.60
30290;DHT22;17105;55.652;37.710;2022-11-20T01:21:38;1.80;91.50
30290;DHT22;17105;55.652;37.710;2022-11-20T01:22:13;1.80;91.50
30290;DHT22;17105;55.652;37.710;2022-11-20T01:22:47;1.80;91.50
30290;DHT22;17105;55.652;37.710;2022-11-20T01:23:21;1.80;91.40
30290;DHT22;17105;55.652;37.710;2022-11-20T01:23:56;1.80;91.50
30290;DHT22;17105;55.652;37.710;2022-11-20T01:24:31;1.80;91.50
30290;DHT22;17105;55.652;37.710;2022-11-20T01:25:06;1.80;91.40
30290;DHT22;17105;55.652;37.710;2022-11-20T01:25:41;1.80;91.40
30290;DHT22;17105;55.652;37.710;2022-11-20T01:26:16;1.80;91.50
30290;DHT22;17105;55.652;37.710;2022-11-20T01:26:51;1.80;91.60
30290;DHT22;17105;55.652;37.710;2022-11-20T01:27:25;1.80;91.50
30290;DHT22;17105;55.652;37.710;2022-11-20T01:27:59;1.80;91.40
30290;DHT22;17105;55.652;37.710;2022-11-20T01:28:33;1.80;91.30
30290;DHT22;17105;55.652;37.710;2022-11-20T01:29:07;1.80;91.60
30290;DHT22;17105;55.652;37.710;2022-11-20T01:29:40;1.80;91.30
30290;DHT22;17105;55.652;37.710;2022-11-20T01:30:15;1.80;91.20
30290;DHT22;17105;55.652;37.710;2022-11-20T01:30:49;1.80;91.10
30290;DHT22;17105;55.652;37.710;2022-11-20T01:31:25;1.80;91.00
30290;DHT22;17105;55.652;37.710;2022-11-20T01:31:58;1.80;91.00
30290;DHT22;17105;55.652;37.710;2022-11-20T01:32:32;1.80;91.00
30290;DHT22;17105;55.652;37.710;2022-11-20T01:33:07;1.80;91.10
30290;DHT22;17105;55.652;37.710;2022-11-20T01:33:42;1.70;91.20
30290;DHT22;17105;55.652;37.710;2022-11-20T01:34:17;1.70;91.30
30290;DHT22;17105;55.652;37.710;2022-11-20T01:34:52;1.60;91.30
30290;DHT22;17105;55.652;37.710;2022-11-20T01:35:25;1.60;91.50
30290;DHT22;17105;55.652;37.710;2022-11-20T01:36:03;1.60;91.50
30290;DHT22;17105;55.652;37.710;2022-11-20T01:36:38;1.50;91.50
30290;DHT22;17105;55.652;37.710;2022-11-20T01:37:12;1.50;91.60
30290;DHT22;17105;55.652;37.710;2022-11-20T01:37:48;1.40;91.70
30290;DHT22;17105;55.652;37.710;2022-11-20T01:38:23;1.40;91.90
30290;DHT22;17105;55.652;37.710;2022-11-20T01:38:56;1.30;91.90
30290;DHT22;17105;55.652;37.710;2022-11-20T01:39:33;1.40;92.00
30290;DHT22;17105;55.652;37.710;2022-11-20T01:40:07;1.40;92.10
30290;DHT22;17105;55.652;37.710;2022-11-20T01:40:41;1.40;92.10
30290;DHT22;17105;55.652;37.710;2022-11-20T01:41:15;1.40;92.00
30290;DHT22;17105;55.652;37.710;2022-11-20T01:42:04;1.40;92.00
30290;DHT22;17105;55.652;37.710;2022-11-20T01:43:00;1.40;91.90
30290;DHT22;17105;55.652;37.710;2022-11-20T01:43:56;1.40;92.00
30290;DHT22;17105;55.652;37.710;2022-11-20T01:44:52;1.40;92.10
30290;DHT22;17105;55.652;37.710;2022-11-20T01:45:56;1.40;92.10
30290;DHT22;17105;55.652;37.710;2022-11-20T01:46:31;1.40;92.10
30290;DHT22;17105;55.652;37.710;2022-11-20T01:47:07;1.50;92.10
30290;DHT22;17105;55.652;37.710;2022-11-20T01:47:43;1.50;92.10
30290;DHT22;17105;55.652;37.710;2022-11-20T01:48:17;1.50;92.10
30290;DHT22;17105;55.652;37.710;2022-11-20T01:48:53;1.50;92.10
30290;DHT22;17105;55.652;37.710;2022-11-20T01:49:30;1.40;92.20
30290;DHT22;17105;55.652;37.710;2022-11-20T01:50:09;1.50;92.30
30290;DHT22;17105;55.652;37.710;2022-11-20T01:50:44;1.40;92.20
30290;DHT22;17105;55.652;37.710;2022-11-20T01:51:21;1.50;92.20
30290;DHT22;17105;55.652;37.710;2022-11-20T01:51:58;1.50;92.20
30290;DHT22;17105;55.652;37.710;2022-11-20T01:52:34;1.50;92.20
30290;DHT22;17105;55.652;37.710;2022-11-20T01:53:09;1.50;92.20
30290;DHT22;17105;55.652;37.710;2022-11-20T01:53:46;1.50;92.20
30290;DHT22;17105;55.652;37.710;2022-11-20T01:54:20;1.50;92.10
30290;DHT22;17105;55.652;37.710;2022-11-20T01:54:58;1.50;92.00
30290;DHT22;17105;55.652;37.710;2022-11-20T01:55:34;1.60;92.00
30290;DHT22;17105;55.652;37.710;2022-11-20T01:56:10;1.60;91.90
30290;DHT22;17105;55.652;37.710;2022-11-20T01:56:45;1.60;91.90
30290;DHT22;17105;55.652;37.710;2022-11-20T01:57:20;1.60;91.80
30290;DHT22;17105;55.652;37.710;2022-11-20T01:57:55;1.70;91.80
30290;DHT22;17105;55.652;37.710;2022-11-20T01:58:31;1.70;91.80
30290;DHT22;17105;55.652;37.710;2022-11-20T01:59:06;1.70;91.70
30290;DHT22;17105;55.652;37.710;2022-11-20T01:59:42;1.70;91.70
30290;DHT22;17105;55.652;37.710;2022-11-20T02:00:23;1.70;91.70
30290;DHT22;17105;55.652;37.710;2022-11-20T02:00:56;1.70;91.60
30290;DHT22;17105;55.652;37.710;2022-11-20T02:01:29;1.70;91.60
30290;DHT22;17105;55.652;37.710;2022-11-20T02:02:05;1.80;91.70
30290;DHT22;17105;55.652;37.710;2022-11-20T02:02:39;1.70;91.60
30290;DHT22;17105;55.652;37.710;2022-11-20T02:03:16;1.70;91.60
30290;DHT22;17105;55.652;37.710;2022-11-20T02:03:50;1.70;91.60
30290;DHT22;17105;55.652;37.710;2022-11-20T02:04:24;1.70;91.70
30290;DHT22;17105;55.652;37.710;2022-11-20T02:04:58;1.70;91.80
30290;DHT22;17105;55.652;37.710;2022-11-20T02:05:35;1.70;91.80
30290;DHT22;17105;55.652;37.710;2022-11-20T02:06:11;1.70;91.80
30290;DHT22;17105;55.652;37.710;2022-11-20T02:06:47;1.80;91.80
30290;DHT22;17105;55.652;37.710;2022-11-20T02:07:22;1.80;91.80
30290;DHT22;17105;55.652;37.710;2022-11-20T02:07:57;1.80;91.80
30290;DHT22;17105;55.652;37.710;2022-11-20T02:08:30;1.80;91.80
30290;DHT22;17105;55.652;37.710;2022-11-20T02:09:05;1.80;91.80
30290;DHT22;17105;55.652;37.710;2022-11-20T02:09:38;1.90;91.80
30290;DHT22;17105;55.652;37.710;2022-11-20T02:10:13;1.90;91.80
30290;DHT22;17105;55.652;37.710;2022-11-20T02:10:48;1.90;91.80
30290;DHT22;17105;55.652;37.710;2022-11-20T02:11:22;1.90;91.70
30290;DHT22;17105;55.652;37.710;2022-11-20T02:11:56;2.00;91.70
30290;DHT22;17105;55.652;37.710;2022-11-20T02:12:32;1.90;91.60
30290;DHT22;17105;55.652;37.710;2022-11-20T02:13:24;1.90;91.60
30290;DHT22;17105;55.652;37.710;2022-11-20T02:14:15;1.90;91.60
30290;DHT22;17105;55.652;37.710;2022-11-20T02:14:50;1.90;91.70
30290;DHT22;17105;55.652;37.710;2022-11-20T02:15:24;1.80;91.70
30290;DHT22;17105;55.652;37.710;2022-11-20T02:16:03;1.90;91.70
30290;DHT22;17105;55.652;37.710;2022-11-20T02:16:38;1.90;91.70
30290;DHT22;17105;55.652;37.710;2022-11-20T02:17:12;1.90;91.60
30290;DHT22;17105;55.652;37.710;2022-11-20T02:17:47;1.80;91.60
30290;DHT22;17105;55.652;37.710;2022-11-20T02:18:21;1.80;91.70
30290;DHT22;17105;55.652;37.710;2022-11-20T02:18:55;1.80;91.80
30290;DHT22;17105;55.652;37.710;2022-11-20T02:19:30;1.70;91.80
30290;DHT22;17105;55.652;37.710;2022-11-20T02:20:05;1.80;91.80
30290;DHT22;17105;55.652;37.710;2022-11-20T02:20:39;1.70;91.80
30290;DHT22;17105;55.652;37.710;2022-11-20T02:21:20;1.80;91.80
30290;DHT22;17105;55.652;37.710;2022-11-20T02:21:57;1.80;91.70
30290;DHT22;17105;55.652;37.710;2022-11-20T02:22:35;1.70;91.70
30290;DHT22;17105;55.652;37.710;2022-11-20T02:23:11;1.80;91.80
30290;DHT22;17105;55.652;37.710;2022-11-20T02:24:04;1.80;91.70
30290;DHT22;17105;55.652;37.710;2022-11-20T02:24:40;1.80;91.80
30290;DHT22;17105;55.652;37.710;2022-11-20T02:25:14;1.80;91.50
30290;DHT22;17105;55.652;37.710;2022-11-20T02:25:48;1.80;91.40
30290;DHT22;17105;55.652;37.710;2022-11-20T02:26:24;1.70;91.50
30290;DHT22;17105;55.652;37.710;2022-11-20T02:26:59;1.70;91.50
30290;DHT22;17105;55.652;37.710;2022-11-20T02:27:34;1.70;91.60
30290;DHT22;17105;55.652;37.710;2022-11-20T02:28:09;1.70;91.70
30290;DHT22;17105;55.652;37.710;2022-11-20T02:28:41;1.70;91.60
30290;DHT22;17105;55.652;37.710;2022-11-20T02:29:16;1.70;91.60
30290;DHT22;17105;55.652;37.710;2022-11-20T02:29:51;1.60;91.60
30290;DHT22;17105;55.652;37.710;2022-11-20T02:30:26;1.60;91.70
30290;DHT22;17105;55.652;37.710;2022-11-20T02:31:00;1.60;91.70
30290;DHT22;17105;55.652;37.710;2022-11-20T02:31:37;1.60;91.70
30290;DHT22;17105;55.652;37.710;2022-11-20T02:32:17;1.70;91.70
30290;DHT22;17105;55.652;37.710;2022-11-20T02:32:52;1.70;91.60
30290;DHT22;17105;55.652;37.710;2022-11-20T02:33:27;1.70;91.60
30290;DHT22;17105;55.652;37.710;2022-11-20T02:34:01;1.70;91.50
30290;DHT22;17105;55.652;37.710;2022-11-20T02:34:36;1.70;91.50
30290;DHT22;17105;55.652;37.710;2022-11-20T02:35:38;1.70;91.50
30290;DHT22;17105;55.652;37.710;2022-11-20T02:36:07;1.70;91.50
30290;DHT22;17105;55.652;37.710;2022-11-20T02:36:41;1.70;91.50
30290;DHT22;17105;55.652;37.710;2022-11-20T02:37:17;1.70;91.50
30290;DHT22;17105;55.652;37.710;2022-11-20T02:37:52;1.70;91.50
30290;DHT22;17105;55.652;37.710;2022-11-20T02:38:25;1.70;91.50
30290;DHT22;17105;55.652;37.710;2022-11-20T02:38:59;1.70;91.50
30290;DHT22;17105;55.652;37.710;2022-11-20T02:39:34;1.80;91.50
30290;DHT22;17105;55.652;37.710;2022-11-20T02:40:08;1.80;91.50
30290;DHT22;17105;55.652;37.710;2022-11-20T02:40:43;1.80;91.40
30290;DHT22;17105;55.652;37.710;2022-11-20T02:41:16;1.80;91.40
30290;DHT22;17105;55.652;37.710;2022-11-20T02:41:50;1.70;91.40
30290;DHT22;17105;55.652;37.710;2022-11-20T02:42:26;1.70;91.40
30290;DHT22;17105;55.652;37.710;2022-11-20T02:42:59;1.70;91.70
30290;DHT22;17105;55.652;37.710;2022-11-20T02:43:33;1.70;91.50
30290;DHT22;17105;55.652;37.710;2022-11-20T02:44:09;1.70;91.50
30290;DHT22;17105;55.652;37.710;2022-11-20T02:44:42;1.80;91.50
30290;DHT22;17105;55.652;37.710;2022-11-20T02:45:17;1.80;91.50
30290;DHT22;17105;55.652;37.710;2022-11-20T02:45:51;1.80;91.40
30290;DHT22;17105;55.652;37.710;2022-11-20T02:46:25;1.80;91.30
30290;DHT22;17105;55.652;37.710;2022-11-20T02:47:00;1.80;91.30
30290;DHT22;17105;55.652;37.710;2022-11-20T02:47:34;1.80;91.20
30290;DHT22;17105;55.652;37.710;2022-11-20T02:48:08;1.90;91.20
30290;DHT22;17105;55.652;37.710;2022-11-20T02:48:42;1.90;91.20
30290;DHT22;17105;55.652;37.710;2022-11-20T02:49:16;1.90;91.10
30290;DHT22;17105;55.652;37.710;2022-11-20T02:49:51;1.90;91.00
30290;DHT22;17105;55.652;37.710;2022-11-20T02:50:24;1.80;90.90
30290;DHT22;17105;55.652;37.710;2022-11-20T02:50:58;1.80;90.80
30290;DHT22;17105;55.652;37.710;2022-11-20T02:51:33;1.80;90.80
30290;DHT22;17105;55.652;37.710;2022-11-20T02:52:07;1.80;90.80
30290;DHT22;17105;55.652;37.710;2022-11-20T02:52:40;1.80;90.90
30290;DHT22;17105;55.652;37.710;2022-11-20T02:53:15;1.80;90.90
30290;DHT22;17105;55.652;37.710;2022-11-20T02:53:51;1.80;90.90
30290;DHT22;17105;55.652;37.710;2022-11-20T02:54:25;1.80;90.90
30290;DHT22;17105;55.652;37.710;2022-11-20T02:54:59;1.80;91.00
30290;DHT22;17105;55.652;37.710;2022-11-20T02:55:35;1.80;91.00
30290;DHT22;17105;55.652;37.710;2022-11-20T02:56:09;1.80;91.00
30290;DHT22;17105;55.652;37.710;2022-11-20T02:56:43;1.80;90.90
30290;DHT22;17105;55.652;37.710;2022-11-20T02:57:18;1.80;91.00
30290;DHT22;17105;55.652;37.710;2022-11-20T02:57:51;1.80;91.00
30290;DHT22;17105;55.652;37.710;2022-11-20T02:58:25;1.80;91.00
30290;DHT22;17105;55.652;37.710;2022-11-20T02:58:59;1.80;91.00
30290;DHT22;17105;55.652;37.710;2022-11-20T02:59:32;1.80;91.00
30290;DHT22;17105;55.652;37.710;2022-11-20T03:00:07;1.80;91.00
30290;DHT22;17105;55.652;37.710;2022-11-20T03:00:41;1.80;91.10
30290;DHT22;17105;55.652;37.710;2022-11-20T03:01:15;1.80;91.00
30290;DHT22;17105;55.652;37.710;2022-11-20T03:01:49;1.80;91.10
30290;DHT22;17105;55.652;37.710;2022-11-20T03:02:23;1.80;91.10
30290;DHT22;17105;55.652;37.710;2022-11-20T03:02:57;1.80;91.00
30290;DHT22;17105;55.652;37.710;2022-11-20T03:03:31;1.80;91.00
30290;DHT22;17105;55.652;37.710;2022-11-20T03:04:07;1.80;91.00
30290;DHT22;17105;55.652;37.710;2022-11-20T03:04:41;1.80;91.10
30290;DHT22;17105;55.652;37.710;2022-11-20T03:05:14;1.80;90.90
30290;DHT22;17105;55.652;37.710;2022-11-20T03:05:50;1.70;90.90
30290;DHT22;17105;55.652;37.710;2022-11-20T03:06:23;1.70;91.20
30290;DHT22;17105;55.652;37.710;2022-11-20T03:06:58;1.70;91.00
30290;DHT22;17105;55.652;37.710;2022-11-20T03:07:32;1.70;91.10
30290;DHT22;17105;55.652;37.710;2022-11-20T03:08:06;1.70;91.10
30290;DHT22;17105;55.652;37.710;2022-11-20T03:08:39;1.70;91.10
30290;DHT22;17105;55.652;37.710;2022-11-20T03:09:14;1.70;91.20
30290;DHT22;17105;55.652;37.710;2022-11-20T03:09:47;1.70;91.20
30290;DHT22;17105;55.652;37.710;2022-11-20T03:10:20;1.70;91.20
30290;DHT22;17105;55.652;37.710;2022-11-20T03:10:55;1.70;91.20
30290;DHT22;17105;55.652;37.710;2022-11-20T03:11:30;1.70;91.20
30290;DHT22;17105;55.652;37.710;2022-11-20T03:12:04;1.70;91.20
30290;DHT22;17105;55.652;37.710;2022-11-20T03:12:39;1.80;91.20
30290;DHT22;17105;55.652;37.710;2022-11-20T03:13:13;1.80;91.10
30290;DHT22;17105;55.652;37.710;2022-11-20T03:13:46;1.80;91.10
30290;DHT22;17105;55.652;37.710;2022-11-20T03:14:20;1.80;91.00
30290;DHT22;17105;55.652;37.710;2022-11-20T03:14:54;1.80;90.90
30290;DHT22;17105;55.652;37.710;2022-11-20T03:15:27;1.80;90.90
30290;DHT22;17105;55.652;37.710;2022-11-20T03:16:06;1.80;90.90
30290;DHT22;17105;55.652;37.710;2022-11-20T03:16:40;1.80;90.90
30290;DHT22;17105;55.652;37.710;2022-11-20T03:17:15;1.70;90.90
30290;DHT22;17105;55.652;37.710;2022-11-20T03:17:52;1.70;91.00
30290;DHT22;17105;55.652;37.710;2022-11-20T03:18:27;1.80;91.00
30290;DHT22;17105;55.652;37.710;2022-11-20T03:19:01;1.80;90.90
30290;DHT22;17105;55.652;37.710;2022-11-20T03:19:36;1.70;90.80
30290;DHT22;17105;55.652;37.710;2022-11-20T03:20:10;1.70;91.00
30290;DHT22;17105;55.652;37.710;2022-11-20T03:20:45;1.70;91.00
30290;DHT22;17105;55.652;37.710;2022-11-20T03:21:20;1.70;91.00
30290;DHT22;17105;55.652;37.710;2022-11-20T03:21:53;1.70;90.90
30290;DHT22;17105;55.652;37.710;2022-11-20T03:22:29;1.70;90.90
30290;DHT22;17105;55.652;37.710;2022-11-20T03:23:03;1.70;90.90
30290;DHT22;17105;55.652;37.710;2022-11-20T03:23:37;1.70;90.80
30290;DHT22;17105;55.652;37.710;2022-11-20T03:24:12;1.70;90.80
30290;DHT22;17105;55.652;37.710;2022-11-20T03:24:45;1.80;90.80
30290;DHT22;17105;55.652;37.710;2022-11-20T03:25:19;1.70;90.80
30290;DHT22;17105;55.652;37.710;2022-11-20T03:25:53;1.70;90.80
30290;DHT22;17105;55.652;37.710;2022-11-20T03:26:26;1.70;90.80
30290;DHT22;17105;55.652;37.710;2022-11-20T03:27:02;1.70;90.80
30290;DHT22;17105;55.652;37.710;2022-11-20T03:27:36;1.80;90.90
30290;DHT22;17105;55.652;37.710;2022-11-20T03:28:11;1.70;90.90
30290;DHT22;17105;55.652;37.710;2022-11-20T03:28:46;1.70;90.80
30290;DHT22;17105;55.652;37.710;2022-11-20T03:29:20;1.70;90.90
30290;DHT22;17105;55.652;37.710;2022-11-20T03:29:54;1.70;90.90
30290;DHT22;17105;55.652;37.710;2022-11-20T03:30:29;1.70;91.00
30290;DHT22;17105;55.652;37.710;2022-11-20T03:31:06;1.70;91.00
30290;DHT22;17105;55.652;37.710;2022-11-20T03:31:40;1.70;91.00
30290;DHT22;17105;55.652;37.710;2022-11-20T03:32:16;1.70;91.00
30290;DHT22;17105;55.652;37.710;2022-11-20T03:32:52;1.70;91.00
30290;DHT22;17105;55.652;37.710;2022-11-20T03:33:27;1.70;91.00
30290;DHT22;17105;55.652;37.710;2022-11-20T03:34:02;1.70;91.00
30290;DHT22;17105;55.652;37.710;2022-11-20T03:34:36;1.70;91.00
30290;DHT22;17105;55.652;37.710;2022-11-20T03:35:10;1.70;91.00
30290;DHT22;17105;55.652;37.710;2022-11-20T03:35:44;1.70;91.00
30290;DHT22;17105;55.652;37.710;2022-11-20T03:36:18;1.70;91.00
30290;DHT22;17105;55.652;37.710;2022-11-20T03:36:53;1.70;91.00
30290;DHT22;17105;55.652;37.710;2022-11-20T03:37:29;1.70;91.00
30290;DHT22;17105;55.652;37.710;2022-11-20T03:38:03;1.70;91.00
30290;DHT22;17105;55.652;37.710;2022-11-20T03:38:38;1.70;91.00
30290;DHT22;17105;55.652;37.710;2022-11-20T03:39:13;1.70;91.00
30290;DHT22;17105;55.652;37.710;2022-11-20T03:39:46;1.70;91.00
30290;DHT22;17105;55.652;37.710;2022-11-20T03:40:21;1.70;91.00
30290;DHT22;17105;55.652;37.710;2022-11-20T03:40:57;1.70;91.00
30290;DHT22;17105;55.652;37.710;2022-11-20T03:41:35;1.70;90.90
30290;DHT22;17105;55.652;37.710;2022-11-20T03:42:10;1.70;90.90
30290;DHT22;17105;55.652;37.710;2022-11-20T03:43:03;1.70;90.80